createdAt,value
2022-08-02T04:02:41.857Z,101186.00
2022-08-02T04:05:10.529Z,101182.00
2022-08-02T04:08:34.930Z,101187.00
2022-08-02T04:10:27.290Z,101183.00
2022-08-02T04:12:56.513Z,101192.00
2022-08-02T04:15:25.752Z,101192.00
2022-08-02T04:18:00.207Z,101195.00
2022-08-02T04:20:32.592Z,101200.00
2022-08-02T04:23:06.687Z,101200.00
2022-08-02T04:25:40.464Z,101204.00
2022-08-02T04:28:17.260Z,101197.00
2022-08-02T04:30:48.061Z,101191.00
2022-08-02T04:33:19.397Z,101199.00
2022-08-02T04:35:47.764Z,101202.00
2022-08-02T04:38:17.152Z,101206.00
2022-08-02T04:40:53.027Z,101204.00
2022-08-02T04:43:21.639Z,101209.00
2022-08-02T04:45:54.447Z,101198.00
2022-08-02T04:48:24.739Z,101213.00
2022-08-02T04:50:53.426Z,101216.00
2022-08-02T04:53:21.850Z,101226.00
2022-08-02T04:55:50.056Z,101223.00
2022-08-02T04:58:39.403Z,101228.00
2022-08-02T05:01:06.442Z,101221.00
2022-08-02T05:03:35.997Z,101228.00
2022-08-02T05:06:04.339Z,101225.00
2022-08-02T05:08:47.459Z,101231.00
2022-08-02T05:11:22.276Z,101228.00
2022-08-02T05:13:59.455Z,101239.00
2022-08-02T05:16:31.269Z,101230.00
2022-08-02T05:19:02.006Z,101234.00
2022-08-02T05:21:31.318Z,101223.00
2022-08-02T05:23:59.393Z,101233.00
2022-08-02T05:26:27.445Z,101245.00
2022-08-02T05:28:56.535Z,101232.00
2022-08-02T05:31:24.779Z,101246.00
2022-08-02T05:33:52.890Z,101239.00
2022-08-02T05:36:22.561Z,101244.00
2022-08-02T05:38:51.799Z,101238.00
2022-08-02T05:41:20.484Z,101245.00
2022-08-02T05:43:49.089Z,101247.00
2022-08-02T05:46:17.355Z,101249.00
2022-08-02T05:48:45.647Z,101256.00
2022-08-02T05:51:27.685Z,101260.00
2022-08-02T05:54:06.920Z,101258.00
2022-08-02T05:56:39.620Z,101268.00
2022-08-02T05:59:27.088Z,101274.00
2022-08-02T06:02:01.744Z,101275.00
2022-08-02T06:04:48.304Z,101283.00
2022-08-02T06:07:20.721Z,101281.00
2022-08-02T06:09:50.734Z,101278.00
2022-08-02T06:12:20.557Z,101279.00
2022-08-02T06:14:54.371Z,101276.00
2022-08-02T06:17:24.173Z,101279.00
2022-08-02T06:19:57.523Z,101278.00
2022-08-02T06:22:33.289Z,101283.00
2022-08-02T06:25:48.238Z,101279.00
2022-08-02T06:28:00.918Z,101279.00
2022-08-02T06:30:30.134Z,101282.00
2022-08-02T06:32:58.691Z,101274.00
2022-08-02T06:35:36.886Z,101266.00
2022-08-02T06:38:08.919Z,101277.00
2022-08-02T06:40:46.763Z,101278.00
2022-08-02T06:43:24.592Z,101271.00
2022-08-02T06:45:52.685Z,101279.00
2022-08-02T06:48:20.820Z,101277.00
2022-08-02T06:50:49.022Z,101274.00
2022-08-02T06:53:18.536Z,101269.00
2022-08-02T06:55:46.648Z,101279.00
2022-08-02T06:58:15.233Z,101279.00
2022-08-02T07:00:44.637Z,101276.00
2022-08-02T07:03:12.890Z,101275.00
2022-08-02T07:05:43.612Z,101271.00
2022-08-02T07:08:11.725Z,101260.00
2022-08-02T07:10:41.212Z,101260.00
2022-08-02T07:13:09.298Z,101262.00
2022-08-02T07:15:39.132Z,101260.00
2022-08-02T07:18:17.260Z,101250.00
2022-08-02T07:20:46.649Z,101252.00
2022-08-02T07:23:15.342Z,101253.00
2022-08-02T07:26:02.976Z,101263.00
2022-08-02T07:28:32.509Z,101259.00
2022-08-02T07:31:00.681Z,101259.00
2022-08-02T07:33:38.786Z,101247.00
2022-08-02T07:36:16.926Z,101259.00
2022-08-02T07:38:50.847Z,101257.00
2022-08-02T07:41:20.272Z,101255.00
2022-08-02T07:43:49.840Z,101242.00
2022-08-02T07:46:18.018Z,101254.00
2022-08-02T07:48:47.990Z,101244.00
2022-08-02T07:51:17.397Z,101254.00
2022-08-02T07:53:51.388Z,101242.00
2022-08-02T07:56:31.779Z,101242.00
2022-08-02T07:58:59.829Z,101246.00
2022-08-02T08:01:28.065Z,101242.00
2022-08-02T08:03:56.243Z,101245.00
2022-08-02T08:06:28.503Z,101234.00
2022-08-02T08:08:57.207Z,101233.00
2022-08-02T08:11:25.820Z,101249.00
2022-08-02T08:13:55.253Z,101238.00
2022-08-02T08:16:23.331Z,101245.00
2022-08-02T08:18:51.436Z,101247.00
2022-08-02T08:21:19.640Z,101238.00
2022-08-02T08:23:47.768Z,101241.00
2022-08-02T08:26:16.711Z,101240.00
2022-08-02T08:28:44.861Z,101235.00
2022-08-02T08:31:14.553Z,101230.00
2022-08-02T08:33:42.807Z,101242.00
2022-08-02T08:36:10.926Z,101232.00
2022-08-02T08:38:39.123Z,101225.00
2022-08-02T08:41:08.241Z,101232.00
2022-08-02T08:43:37.819Z,101221.00
2022-08-02T08:46:07.529Z,101226.00
2022-08-02T08:48:44.315Z,101226.00
2022-08-02T08:51:17.418Z,101222.00
2022-08-02T08:53:49.500Z,101203.00
2022-08-02T08:56:18.752Z,101215.00
2022-08-02T08:58:48.472Z,101223.00
2022-08-02T09:01:17.423Z,101220.00
2022-08-02T09:03:47.396Z,101228.00
2022-08-02T09:06:15.720Z,101222.00
2022-08-02T09:08:44.342Z,101232.00
2022-08-02T09:11:17.659Z,101211.00
2022-08-02T09:13:54.987Z,101227.00
2022-08-02T09:16:32.844Z,101227.00
2022-08-02T09:19:17.482Z,101233.00
2022-08-02T09:21:46.228Z,101226.00
2022-08-02T09:24:20.050Z,101221.00
2022-08-02T09:26:49.739Z,101222.00
2022-08-02T09:29:22.349Z,101224.00
2022-08-02T09:31:52.546Z,101219.00
2022-08-02T09:34:22.662Z,101219.00
2022-08-02T09:36:54.732Z,101225.00
2022-08-02T09:39:26.381Z,101218.00
2022-08-02T09:42:10.583Z,101218.00
2022-08-02T09:44:39.079Z,101214.00
2022-08-02T09:47:16.754Z,101216.00
2022-08-02T09:49:52.484Z,101216.00
2022-08-02T09:52:37.422Z,101212.00
2022-08-02T09:55:12.799Z,101207.00
2022-08-02T09:57:41.249Z,101200.00
2022-08-02T10:00:15.068Z,101203.00
2022-08-02T10:03:08.704Z,101205.00
2022-08-02T10:05:55.546Z,101205.00
2022-08-02T10:08:24.286Z,101212.00
2022-08-02T10:11:00.266Z,101202.00
2022-08-02T10:13:31.672Z,101199.00
2022-08-02T10:15:59.948Z,101203.00
2022-08-02T10:18:43.056Z,101206.00
2022-08-02T10:21:21.692Z,101198.00
2022-08-02T10:23:52.616Z,101223.00
2022-08-02T10:26:22.288Z,101216.00
2022-08-02T10:28:51.465Z,101222.00
2022-08-02T10:31:28.244Z,101219.00
2022-08-02T10:33:59.838Z,101217.00
2022-08-02T10:36:34.753Z,101215.00
2022-08-02T10:39:04.254Z,101215.00
2022-08-02T10:41:48.108Z,101218.00
2022-08-02T10:44:26.472Z,101218.00
2022-08-02T10:47:22.521Z,101221.00
2022-08-02T10:49:53.036Z,101211.00
2022-08-02T10:52:23.300Z,101210.00
2022-08-02T10:54:58.536Z,101207.00
2022-08-02T10:57:29.726Z,101188.00
2022-08-02T11:00:02.363Z,101201.00
2022-08-02T11:02:40.469Z,101201.00
2022-08-02T11:05:12.850Z,101197.00
2022-08-02T11:07:49.341Z,101182.00
2022-08-02T11:10:40.581Z,101187.00
2022-08-02T11:13:15.058Z,101184.00
2022-08-02T11:16:04.490Z,101181.00
2022-08-02T11:19:06.666Z,101171.00
2022-08-02T11:21:36.993Z,101173.00
2022-08-02T11:24:31.205Z,101171.00
2022-08-02T11:27:01.941Z,101166.00
2022-08-02T11:29:39.160Z,101164.00
2022-08-02T11:32:09.647Z,101166.00
2022-08-02T11:34:40.202Z,101152.00
2022-08-02T11:37:08.337Z,101161.00
2022-08-02T11:39:37.694Z,101164.00
2022-08-02T11:42:06.411Z,101162.00
2022-08-02T11:44:43.182Z,101172.00
2022-08-02T11:47:12.957Z,101176.00
2022-08-02T11:49:41.421Z,101164.00
2022-08-02T11:52:11.412Z,101173.00
2022-08-02T11:54:43.732Z,101173.00
2022-08-02T11:57:19.271Z,101172.00
2022-08-02T11:59:51.967Z,101167.00
2022-08-02T12:02:21.880Z,101166.00
2022-08-02T12:04:57.944Z,101155.00
2022-08-02T12:07:34.584Z,101172.00
2022-08-02T12:10:09.503Z,101170.00
2022-08-02T12:12:50.223Z,101164.00
2022-08-02T12:15:35.680Z,101154.00
2022-08-02T12:18:22.602Z,101159.00
2022-08-02T12:20:50.656Z,101165.00
2022-08-02T12:23:18.751Z,101153.00
2022-08-02T12:26:00.773Z,101142.00
2022-08-02T12:28:28.890Z,101159.00
2022-08-02T12:31:00.287Z,101163.00
2022-08-02T12:33:31.052Z,101164.00
2022-08-02T12:35:59.261Z,101164.00
2022-08-02T12:38:27.308Z,101158.00
2022-08-02T12:40:56.728Z,101159.00
2022-08-02T12:43:25.939Z,101159.00
2022-08-02T12:45:57.383Z,101164.00
2022-08-02T12:48:48.152Z,101153.00
2022-08-02T12:51:51.175Z,101157.00
2022-08-02T12:54:29.157Z,101156.00
2022-08-02T12:57:13.082Z,101156.00
2022-08-02T12:59:44.456Z,101156.00
2022-08-02T13:02:14.638Z,101149.00
2022-08-02T13:04:49.682Z,101154.00
2022-08-02T13:07:19.124Z,101149.00
2022-08-02T13:09:48.371Z,101138.00
2022-08-02T13:12:18.243Z,101137.00
2022-08-02T13:14:46.515Z,101141.00
2022-08-02T13:17:14.619Z,101146.00
2022-08-02T13:19:42.867Z,101146.00
2022-08-02T13:22:11.048Z,101142.00
2022-08-02T13:24:56.078Z,101142.00
2022-08-02T13:27:27.572Z,101147.00
2022-08-02T13:29:57.283Z,101142.00
2022-08-02T13:32:27.784Z,101131.00
2022-08-02T13:34:56.877Z,101143.00
2022-08-02T13:37:25.832Z,101136.00
2022-08-02T13:40:19.173Z,101129.00
2022-08-02T13:42:43.918Z,101118.00
2022-08-02T13:45:14.086Z,101114.00
2022-08-02T13:47:57.464Z,101122.00
2022-08-02T13:50:31.658Z,101119.00
2022-08-02T13:52:59.699Z,101111.00
2022-08-02T13:55:28.055Z,101101.00
2022-08-02T13:57:57.930Z,101109.00
2022-08-02T14:00:35.463Z,101114.00
2022-08-02T14:03:05.691Z,101113.00
2022-08-02T14:05:39.524Z,101109.00
2022-08-02T14:08:18.215Z,101103.00
2022-08-02T14:10:47.404Z,101103.00
2022-08-02T14:13:17.392Z,101105.00
2022-08-02T14:15:45.841Z,101104.00
2022-08-02T14:18:15.212Z,101102.00
2022-08-02T14:20:44.929Z,101101.00
2022-08-02T14:23:13.474Z,101100.00
2022-08-02T14:25:41.656Z,101090.00
2022-08-02T14:28:10.039Z,101091.00
2022-08-02T14:30:39.602Z,101051.00
2022-08-02T14:33:08.001Z,101082.00
2022-08-02T14:35:36.144Z,101080.00
2022-08-02T14:38:04.487Z,101088.00
2022-08-02T14:40:32.757Z,101078.00
2022-08-02T14:43:01.849Z,101081.00
2022-08-02T14:45:39.938Z,101066.00
2022-08-02T14:48:12.855Z,101056.00
2022-08-02T14:50:40.932Z,101068.00
2022-08-02T14:53:12.320Z,101065.00
2022-08-02T14:55:42.656Z,101065.00
2022-08-02T14:58:10.951Z,101056.00
2022-08-02T15:00:41.179Z,101065.00
2022-08-02T15:03:12.053Z,101048.00
2022-08-02T15:05:41.082Z,101039.00
2022-08-02T15:08:09.176Z,101054.00
2022-08-02T15:10:37.363Z,101046.00
2022-08-02T15:13:05.506Z,101044.00
2022-08-02T15:15:43.378Z,101042.00
2022-08-02T15:18:14.012Z,101039.00
2022-08-02T15:20:47.780Z,101038.00
2022-08-02T15:23:37.598Z,101039.00
2022-08-02T15:26:07.498Z,101037.00
2022-08-02T15:28:36.229Z,101018.00
2022-08-02T15:31:04.337Z,101040.00
2022-08-02T15:33:33.780Z,101037.00
2022-08-02T15:36:01.901Z,101033.00
2022-08-02T15:38:29.982Z,101030.00
2022-08-02T15:40:58.015Z,101034.00
2022-08-02T15:43:26.181Z,101034.00
2022-08-02T15:45:54.286Z,101030.00
2022-08-02T15:48:22.527Z,101032.00
2022-08-02T15:50:51.969Z,101034.00
2022-08-02T15:53:20.081Z,101025.00
2022-08-02T15:55:52.090Z,101022.00
2022-08-02T15:58:22.298Z,101021.00
2022-08-02T16:00:51.008Z,101021.00
2022-08-02T16:03:19.084Z,101014.00
2022-08-02T16:05:47.234Z,101018.00
2022-08-02T16:08:16.684Z,101013.00
2022-08-02T16:10:45.218Z,101008.00
2022-08-02T16:13:30.709Z,101009.00
2022-08-02T16:15:59.018Z,101014.00
2022-08-02T16:18:27.052Z,101005.00
2022-08-02T16:20:55.177Z,101010.00
2022-08-02T16:24:01.565Z,101001.00
2022-08-02T16:26:12.869Z,100994.00
2022-08-02T16:28:40.903Z,100987.00
2022-08-02T16:31:11.730Z,100991.00
2022-08-02T16:33:39.965Z,101001.00
2022-08-02T16:36:08.246Z,101006.00
2022-08-02T16:38:37.622Z,100996.00
2022-08-02T16:41:06.709Z,100994.00
2022-08-02T16:43:35.014Z,100995.00
2022-08-02T16:46:03.377Z,100995.00
2022-08-02T16:48:31.472Z,100990.00
2022-08-02T16:51:00.622Z,100989.00
2022-08-02T16:53:36.558Z,100985.00
2022-08-02T16:56:07.029Z,100996.00
2022-08-02T16:58:35.737Z,100988.00
2022-08-02T17:01:05.428Z,100992.00
2022-08-02T17:03:56.305Z,100986.00
2022-08-02T17:06:21.583Z,100988.00
2022-08-02T17:08:56.086Z,100980.00
2022-08-02T17:11:25.606Z,100976.00
2022-08-02T17:13:54.043Z,100973.00
2022-08-02T17:16:25.864Z,100970.00
2022-08-02T17:18:55.404Z,100972.00
2022-08-02T17:21:23.851Z,100963.00
2022-08-02T17:24:05.500Z,100974.00
2022-08-02T17:26:38.804Z,100971.00
2022-08-02T17:29:16.937Z,100975.00
2022-08-02T17:32:05.130Z,100983.00
2022-08-02T17:34:56.710Z,100982.00
2022-08-02T17:37:29.299Z,100986.00
2022-08-02T17:39:58.054Z,100988.00
2022-08-02T17:42:28.928Z,100985.00
2022-08-02T17:45:07.096Z,100994.00
2022-08-02T17:48:04.360Z,100998.00
2022-08-02T17:50:33.747Z,101002.00
2022-08-02T17:53:02.654Z,100982.00
2022-08-02T17:55:31.248Z,101001.00
2022-08-02T17:58:01.057Z,100997.00
2022-08-02T18:00:38.605Z,100989.00
2022-08-02T18:03:10.159Z,101000.00
2022-08-02T18:05:53.074Z,101002.00
2022-08-02T18:08:23.007Z,100994.00
2022-08-02T18:10:52.419Z,100995.00
2022-08-02T18:13:22.256Z,100992.00
2022-08-02T18:15:52.270Z,100996.00
2022-08-02T18:18:29.256Z,101003.00
2022-08-02T18:21:08.130Z,101002.00
2022-08-02T18:23:44.121Z,101004.00
2022-08-02T18:26:16.856Z,101005.00
2022-08-02T18:28:46.457Z,101010.00
2022-08-02T18:31:22.668Z,101007.00
2022-08-02T18:33:57.984Z,100999.00
2022-08-02T18:36:31.426Z,101006.00
2022-08-02T18:39:07.877Z,101001.00
2022-08-02T18:41:37.992Z,101007.00
2022-08-02T18:44:07.836Z,101009.00
2022-08-02T18:46:37.121Z,101001.00
2022-08-02T18:49:14.630Z,101002.00
2022-08-02T18:51:43.717Z,101004.00
2022-08-02T18:54:11.833Z,101010.00
2022-08-02T18:56:40.126Z,101010.00
2022-08-02T18:59:10.617Z,101008.00
2022-08-02T19:01:46.839Z,101006.00
2022-08-02T19:04:26.784Z,101007.00
2022-08-02T19:07:03.898Z,101018.00
2022-08-02T19:09:36.069Z,101011.00
2022-08-02T19:12:11.393Z,101017.00
2022-08-02T19:14:41.287Z,101012.00
2022-08-02T19:17:15.739Z,101010.00
2022-08-02T19:19:58.487Z,101008.00
2022-08-02T19:22:27.235Z,101004.00
2022-08-02T19:25:01.069Z,101004.00
2022-08-02T19:27:32.085Z,101007.00
2022-08-02T19:30:03.032Z,101012.00
2022-08-02T19:32:41.365Z,101007.00
2022-08-02T19:35:29.177Z,101001.00
2022-08-02T19:38:08.860Z,101009.00
2022-08-02T19:40:38.546Z,101008.00
2022-08-02T19:44:27.032Z,101007.00
2022-08-02T19:45:57.171Z,101003.00
2022-08-02T19:48:27.271Z,101004.00
2022-08-02T19:51:00.590Z,101000.00
2022-08-02T19:56:24.818Z,101003.00
2022-08-02T19:58:55.616Z,100989.00
2022-08-02T20:01:36.571Z,101017.00
2022-08-02T20:04:13.650Z,101010.00
2022-08-02T20:06:45.107Z,100998.00
2022-08-02T20:09:16.440Z,101010.00
2022-08-02T20:11:54.031Z,101002.00
2022-08-02T20:14:26.737Z,101006.00
2022-08-02T20:16:58.335Z,101009.00
2022-08-02T20:19:28.988Z,101014.00
2022-08-02T20:21:59.726Z,101011.00
2022-08-02T20:24:46.845Z,101006.00
2022-08-02T20:27:21.188Z,100997.00
2022-08-02T20:29:51.995Z,101004.00
2022-08-02T20:32:24.513Z,101001.00
2022-08-02T20:34:53.307Z,101004.00
2022-08-02T20:38:00.303Z,100999.00
2022-08-02T20:40:17.286Z,100990.00
2022-08-02T20:42:48.438Z,101010.00
2022-08-02T20:45:17.909Z,101011.00
2022-08-02T20:47:50.874Z,101014.00
2022-08-02T20:50:38.739Z,101025.00
2022-08-02T20:53:08.843Z,101016.00
2022-08-02T20:55:54.051Z,101023.00
2022-08-02T20:58:27.358Z,101013.00
2022-08-02T22:58:53.719Z,100999.00
